createdAt,value
2023-05-24T00:19:59.908Z,25.00
2023-05-24T00:20:59.892Z,25.00
2023-05-24T00:21:59.871Z,25.00
2023-05-24T00:22:59.863Z,25.00
2023-05-24T00:24:00.087Z,25.00
2023-05-24T00:24:59.862Z,24.10
2023-05-24T00:25:59.847Z,25.31
2023-05-24T00:26:59.847Z,29.28
2023-05-24T00:27:59.844Z,25.00
2023-05-24T00:29:00.109Z,25.63
2023-05-24T00:29:59.816Z,25.00
2023-05-24T00:30:59.822Z,25.00
2023-05-24T00:31:59.853Z,25.04
2023-05-24T00:32:59.861Z,27.06
2023-05-24T00:34:00.072Z,26.30
2023-05-24T00:34:59.777Z,25.00
2023-05-24T00:35:59.787Z,28.48
2023-05-24T00:36:59.770Z,37.10
2023-05-24T00:37:59.770Z,29.45
2023-05-24T00:38:59.789Z,26.52
2023-05-24T00:39:59.748Z,27.30
2023-05-24T00:40:59.736Z,27.54
2023-05-24T00:41:59.731Z,25.00
2023-05-24T00:42:59.731Z,28.70
2023-05-24T00:43:59.726Z,27.49
2023-05-24T00:44:59.727Z,26.70
2023-05-24T00:45:59.774Z,29.17
2023-05-24T00:46:59.701Z,29.93
2023-05-24T00:47:59.733Z,27.88
2023-05-24T00:48:59.687Z,33.22
2023-05-24T00:49:59.696Z,32.41
2023-05-24T00:50:59.669Z,31.36
2023-05-24T00:51:59.679Z,35.47
2023-05-24T00:52:59.679Z,26.26
2023-05-24T00:53:59.650Z,28.61
2023-05-24T00:54:59.646Z,31.60
2023-05-24T00:55:59.646Z,28.02
2023-05-24T00:56:59.627Z,28.96
2023-05-24T00:57:59.646Z,27.83
2023-05-24T00:58:59.616Z,25.23
2023-05-24T00:59:59.613Z,26.45
2023-05-24T01:00:59.610Z,32.47
2023-05-24T01:01:59.699Z,30.54
2023-05-24T01:02:59.668Z,27.12
2023-05-24T01:03:59.814Z,25.00
2023-05-24T01:04:59.567Z,27.30
2023-05-24T01:05:59.556Z,37.50
2023-05-24T01:06:59.551Z,29.25
2023-05-24T01:07:59.558Z,31.20
2023-05-24T01:08:59.545Z,37.79
2023-05-24T01:09:59.558Z,36.47
2023-05-24T01:10:59.529Z,34.66
2023-05-24T01:11:59.536Z,37.98
2023-05-24T01:12:59.526Z,31.15
2023-05-24T01:13:59.513Z,28.23
2023-05-24T01:14:59.521Z,29.58
2023-05-24T01:15:59.528Z,35.67
2023-05-24T01:16:59.488Z,31.01
2023-05-24T01:17:59.521Z,24.00
2023-05-24T01:18:59.480Z,36.32
2023-05-24T01:19:59.496Z,36.55
2023-05-24T01:20:59.461Z,33.73
2023-05-24T01:21:59.448Z,32.59
2023-05-24T01:22:59.444Z,33.63
2023-05-24T01:23:59.435Z,34.06
2023-05-24T01:24:59.441Z,30.63
2023-05-24T01:25:59.425Z,25.00
2023-05-24T01:26:59.418Z,27.07
2023-05-24T01:27:59.424Z,30.45
2023-05-24T01:28:59.411Z,27.83
2023-05-24T01:29:59.456Z,32.07
2023-05-24T01:30:59.434Z,33.95
2023-05-24T01:31:59.370Z,25.11
2023-05-24T01:32:59.403Z,28.38
2023-05-24T01:33:59.372Z,27.85
2023-05-24T01:34:59.381Z,32.07
2023-05-24T01:35:59.371Z,32.26
2023-05-24T01:36:59.369Z,28.05
2023-05-24T01:37:59.339Z,29.10
2023-05-24T01:38:59.331Z,28.40
2023-05-24T01:39:59.338Z,28.38
2023-05-24T01:40:59.344Z,26.42
2023-05-24T01:41:59.306Z,32.20
2023-05-24T01:42:59.302Z,33.97
2023-05-24T01:43:59.309Z,31.75
2023-05-24T01:44:59.300Z,28.13
2023-05-24T01:45:59.309Z,27.63
2023-05-24T01:46:59.329Z,38.80
2023-05-24T01:47:59.385Z,39.01
2023-05-24T01:48:59.287Z,39.85
2023-05-24T01:49:59.285Z,29.96
2023-05-24T01:50:59.265Z,36.85
2023-05-24T01:51:59.363Z,34.13
2023-05-24T01:52:59.284Z,32.16
2023-05-24T01:53:59.317Z,34.39
2023-05-24T01:54:59.317Z,26.63
2023-05-24T01:55:59.349Z,33.20
2023-05-24T01:56:59.355Z,37.09
2023-05-24T01:57:59.382Z,33.12
2023-05-24T01:58:59.396Z,38.39
2023-05-24T01:59:59.405Z,46.36
2023-05-24T02:00:59.456Z,44.02
2023-05-24T02:01:59.440Z,59.35
2023-05-24T02:02:59.546Z,41.53
2023-05-24T02:03:59.441Z,41.92
2023-05-24T02:04:59.458Z,43.38
2023-05-24T02:05:59.470Z,37.86
2023-05-24T02:06:59.478Z,39.20
2023-05-24T02:07:59.509Z,46.15
2023-05-24T02:08:59.516Z,34.65
2023-05-24T02:09:59.511Z,25.00
2023-05-24T02:10:59.539Z,33.53
2023-05-24T02:11:59.546Z,36.10
2023-05-24T02:12:59.638Z,27.81
2023-05-24T02:13:59.603Z,29.65
2023-05-24T02:14:59.589Z,35.82
2023-05-24T02:15:59.619Z,35.26
2023-05-24T02:16:59.669Z,38.85
2023-05-24T02:17:59.694Z,40.69
2023-05-24T02:18:59.663Z,43.25
2023-05-24T02:19:59.737Z,47.29
2023-05-24T02:20:59.701Z,39.66
2023-05-24T02:21:59.701Z,46.26
2023-05-24T02:22:59.718Z,48.36
2023-05-24T02:23:59.733Z,47.52
2023-05-24T02:24:59.738Z,55.93
2023-05-24T02:25:59.779Z,39.21
2023-05-24T02:26:59.773Z,37.80
2023-05-24T02:27:59.805Z,45.12
2023-05-24T02:28:59.810Z,47.81
2023-05-24T02:29:59.817Z,51.02
2023-05-24T02:30:59.855Z,60.00
2023-05-24T02:31:59.853Z,55.73
2023-05-24T02:32:59.944Z,54.66
2023-05-24T02:33:59.891Z,55.33
2023-05-24T02:34:59.910Z,54.32
2023-05-24T02:35:59.927Z,55.79
2023-05-24T02:36:59.935Z,52.63
2023-05-24T02:37:59.973Z,55.13
2023-05-24T02:38:59.976Z,58.58
2023-05-24T02:39:59.992Z,58.54
2023-05-24T02:41:00.008Z,57.52
2023-05-24T02:42:00.104Z,54.83
2023-05-24T02:43:00.060Z,47.87
2023-05-24T02:44:00.101Z,36.36
2023-05-24T02:45:00.114Z,37.55
2023-05-24T02:46:00.152Z,31.71
2023-05-24T02:47:00.154Z,28.56
2023-05-24T02:48:00.340Z,42.18
2023-05-24T02:49:00.232Z,51.58
2023-05-24T02:50:00.216Z,55.27
2023-05-24T02:51:00.216Z,58.60
2023-05-24T02:52:00.248Z,47.13
2023-05-24T02:53:00.262Z,47.34
2023-05-24T02:54:00.272Z,48.00
2023-05-24T02:55:00.299Z,53.50
2023-05-24T02:56:00.305Z,52.94
2023-05-24T02:57:00.330Z,49.04
2023-05-24T02:58:00.344Z,40.64
2023-05-24T02:59:00.371Z,40.42
2023-05-24T03:00:00.390Z,48.15
2023-05-24T03:01:00.410Z,51.38
2023-05-24T03:02:00.471Z,44.98
2023-05-24T03:03:00.531Z,43.12
2023-05-24T03:04:00.595Z,48.02
2023-05-24T03:05:00.499Z,47.47
2023-05-24T03:06:00.538Z,41.42
2023-05-24T03:07:00.520Z,45.65
2023-05-24T03:08:00.555Z,42.53
2023-05-24T03:09:00.580Z,40.78
2023-05-24T03:10:00.632Z,41.54
2023-05-24T03:11:00.626Z,41.38
2023-05-24T03:12:00.628Z,40.28
2023-05-24T03:13:00.656Z,43.38
2023-05-24T03:14:00.658Z,52.55
2023-05-24T03:15:00.678Z,46.45
2023-05-24T03:16:00.805Z,46.91
2023-05-24T03:17:00.713Z,48.42
2023-05-24T03:18:00.770Z,49.97
2023-05-24T03:19:00.740Z,49.31
2023-05-24T03:20:00.779Z,49.68
2023-05-24T03:21:00.805Z,41.46
2023-05-24T03:22:00.794Z,46.19
2023-05-24T03:23:00.816Z,51.10
2023-05-24T03:24:00.822Z,49.48
2023-05-24T03:25:00.856Z,45.90
2023-05-24T03:26:00.890Z,42.92
2023-05-24T03:27:00.891Z,42.61
2023-05-24T03:28:00.925Z,38.88
2023-05-24T03:29:00.962Z,40.44
2023-05-24T03:30:00.961Z,40.55
2023-05-24T03:31:01.015Z,37.77
2023-05-24T03:32:01.055Z,31.74
2023-05-24T03:33:01.071Z,30.95
2023-05-24T03:34:01.045Z,33.72
2023-05-24T03:35:01.053Z,36.80
2023-05-24T03:36:01.109Z,28.90
2023-05-24T03:37:01.089Z,25.74
2023-05-24T03:38:01.100Z,24.78
2023-05-24T03:39:01.123Z,33.24
2023-05-24T03:40:01.155Z,43.42
2023-05-24T03:41:01.170Z,43.66
2023-05-24T03:42:01.194Z,48.35
2023-05-24T03:43:03.008Z,46.98
2023-05-24T03:44:01.203Z,45.58
2023-05-24T03:45:01.196Z,49.75
2023-05-24T03:46:01.297Z,52.92
2023-05-24T03:47:01.177Z,53.42
2023-05-24T03:48:01.225Z,52.95
2023-05-24T03:49:01.176Z,55.00
2023-05-24T03:50:01.160Z,54.99
2023-05-24T03:51:01.151Z,58.82
2023-05-24T03:52:01.153Z,49.27
2023-05-24T03:53:01.155Z,51.06
2023-05-24T03:54:01.146Z,57.67
2023-05-24T03:55:01.119Z,58.95
2023-05-24T03:56:01.129Z,50.64
2023-05-24T03:57:01.120Z,56.52
2023-05-24T03:58:01.106Z,49.08
2023-05-24T03:59:01.118Z,54.97
2023-05-24T04:00:01.097Z,56.83
2023-05-24T04:01:01.111Z,57.10
2023-05-24T04:02:01.126Z,49.18
2023-05-24T04:03:01.170Z,35.72
2023-05-24T04:04:01.113Z,41.41
2023-05-24T04:05:01.062Z,45.03
2023-05-24T04:06:01.056Z,47.72
2023-05-24T04:07:01.065Z,49.85
2023-05-24T04:08:01.042Z,41.25
2023-05-24T04:09:01.032Z,41.24
2023-05-24T04:10:01.039Z,37.01
2023-05-24T04:11:01.034Z,37.41
2023-05-24T04:12:01.034Z,37.41
2023-05-24T04:13:00.999Z,50.58
2023-05-24T04:14:01.005Z,46.65
2023-05-24T04:15:00.997Z,46.20
2023-05-24T04:16:00.985Z,29.46
2023-05-24T04:17:01.143Z,26.71
2023-05-24T04:18:01.037Z,36.56
2023-05-24T04:19:01.062Z,43.26
2023-05-24T04:20:00.983Z,37.52
2023-05-24T04:21:00.951Z,35.10
2023-05-24T04:22:00.936Z,29.51
2023-05-24T04:23:00.948Z,35.78
2023-05-24T04:24:00.920Z,36.08
2023-05-24T04:25:00.943Z,38.73
2023-05-24T04:26:00.910Z,40.81
2023-05-24T04:27:00.923Z,42.89
2023-05-24T04:28:00.892Z,34.62
2023-05-24T04:29:00.896Z,26.66
2023-05-24T04:30:00.888Z,29.01
2023-05-24T04:31:00.930Z,33.25
2023-05-24T04:32:00.887Z,39.56
2023-05-24T04:33:00.919Z,37.55
2023-05-24T04:34:00.850Z,41.31
2023-05-24T04:35:00.835Z,31.45
2023-05-24T04:36:00.842Z,28.22
2023-05-24T04:37:00.836Z,33.20
2023-05-24T04:38:00.850Z,33.79
2023-05-24T04:39:00.822Z,32.01
2023-05-24T04:40:00.817Z,28.42
2023-05-24T04:41:00.813Z,26.67
2023-05-24T04:42:00.819Z,30.93
2023-05-24T04:43:00.792Z,37.42
2023-05-24T04:44:00.790Z,41.83
2023-05-24T04:45:00.797Z,38.83
2023-05-24T04:46:00.768Z,38.68
2023-05-24T04:47:00.822Z,27.82
2023-05-24T04:48:00.866Z,33.10
2023-05-24T04:49:00.745Z,23.97
2023-05-24T04:50:00.745Z,37.43
2023-05-24T04:51:00.723Z,42.10
2023-05-24T04:52:00.729Z,41.05
2023-05-24T04:53:00.713Z,32.69
2023-05-24T04:54:00.715Z,37.10
2023-05-24T04:55:00.731Z,42.33
2023-05-24T04:56:00.689Z,46.87
2023-05-24T04:57:00.701Z,43.03
2023-05-24T04:58:00.797Z,36.05
2023-05-24T04:59:00.673Z,37.66
2023-05-24T05:00:00.688Z,44.68
2023-05-24T05:01:00.665Z,46.71
2023-05-24T05:02:00.776Z,42.42
2023-05-24T05:03:00.741Z,39.33
2023-05-24T05:04:00.737Z,30.94
2023-05-24T05:05:00.629Z,31.11
2023-05-24T05:06:00.630Z,36.89
2023-05-24T05:07:00.613Z,37.71
2023-05-24T05:08:00.619Z,39.83
2023-05-24T05:09:00.598Z,46.04
2023-05-24T05:10:00.601Z,40.91
2023-05-24T05:11:00.584Z,37.59
2023-05-24T05:12:00.604Z,36.82
2023-05-24T05:13:00.604Z,35.30
2023-05-24T05:14:00.634Z,42.95
2023-05-24T05:15:00.663Z,42.02
2023-05-24T05:16:00.664Z,46.40
2023-05-24T05:17:00.687Z,37.84
2023-05-24T05:18:00.755Z,27.99
2023-05-24T05:19:00.724Z,32.78
2023-05-24T05:20:00.787Z,26.61
2023-05-24T05:21:00.789Z,34.35
2023-05-24T05:22:00.813Z,31.43
2023-05-24T05:23:00.803Z,29.57
2023-05-24T05:24:00.838Z,31.20
2023-05-24T05:25:00.860Z,30.41
2023-05-24T05:26:00.868Z,31.56
2023-05-24T05:27:00.873Z,32.04
2023-05-24T05:28:00.921Z,34.85
2023-05-24T05:29:00.999Z,36.13
2023-05-24T05:30:00.922Z,41.26
2023-05-24T05:31:01.012Z,42.44
2023-05-24T05:32:01.012Z,50.52
2023-05-24T05:33:01.098Z,51.82
2023-05-24T05:34:01.048Z,34.71
2023-05-24T05:35:01.119Z,34.73
2023-05-24T05:36:01.270Z,32.77
2023-05-24T05:37:01.115Z,30.08
2023-05-24T05:38:01.160Z,35.84
2023-05-24T05:39:01.131Z,50.07
2023-05-24T05:40:01.235Z,62.49
2023-05-24T05:41:01.231Z,79.23
2023-05-24T05:42:01.184Z,96.76
2023-05-24T05:43:01.204Z,108.51
2023-05-24T05:44:01.208Z,109.38
2023-05-24T05:45:01.263Z,116.85
2023-05-24T05:46:01.254Z,126.66
2023-05-24T05:47:01.231Z,136.60
2023-05-24T05:48:01.262Z,134.70
2023-05-24T05:49:01.240Z,128.19
2023-05-24T05:50:01.249Z,111.74
2023-05-24T05:51:01.288Z,105.09
2023-05-24T05:52:01.253Z,96.29
2023-05-24T05:53:01.281Z,88.87
2023-05-24T05:54:01.260Z,82.20
2023-05-24T05:55:01.269Z,82.19
2023-05-24T05:56:02.251Z,77.83
2023-05-24T05:57:01.716Z,74.05
2023-05-24T05:58:01.362Z,72.58
2023-05-24T05:59:01.306Z,75.27
2023-05-24T06:00:01.360Z,70.78
2023-05-24T06:01:01.401Z,65.88
2023-05-24T06:02:01.385Z,64.00
2023-05-24T06:03:01.397Z,68.55
2023-05-24T06:04:01.423Z,61.47
2023-05-24T06:05:01.435Z,58.03
2023-05-24T06:06:01.418Z,57.91
2023-05-24T06:07:01.485Z,60.58
2023-05-24T06:08:01.435Z,57.64
2023-05-24T06:09:01.453Z,54.78
2023-05-24T06:10:01.491Z,58.57
2023-05-24T06:11:01.495Z,48.45
2023-05-24T06:12:01.555Z,55.10
2023-05-24T06:13:01.640Z,53.88
2023-05-24T06:14:01.590Z,55.48
2023-05-24T06:15:01.603Z,56.43
2023-05-24T06:16:01.752Z,50.60
2023-05-24T06:17:01.633Z,51.88
2023-05-24T06:18:01.727Z,42.27
2023-05-24T06:19:06.376Z,48.51
2023-05-24T06:20:02.706Z,48.66
2023-05-24T06:21:01.680Z,49.06
2023-05-24T06:22:01.744Z,47.34
2023-05-24T06:23:01.659Z,45.57
2023-05-24T06:24:01.658Z,46.09
2023-05-24T06:25:01.670Z,48.02
2023-05-24T06:26:01.718Z,43.76
2023-05-24T06:27:03.259Z,44.06
2023-05-24T06:28:01.614Z,45.51
2023-05-24T06:29:01.619Z,39.60
2023-05-24T06:30:01.705Z,40.11
2023-05-24T06:31:01.634Z,41.12
2023-05-24T06:32:01.620Z,41.57
2023-05-24T06:33:01.689Z,38.00
2023-05-24T06:34:04.233Z,32.83
2023-05-24T06:35:01.575Z,33.08
2023-05-24T06:36:01.666Z,34.11
2023-05-24T06:37:01.557Z,41.80
2023-05-24T06:38:01.558Z,56.71
2023-05-24T06:39:01.582Z,89.64
2023-05-24T06:40:01.575Z,110.78
2023-05-24T06:41:01.584Z,132.32
2023-05-24T06:42:01.550Z,156.71
2023-05-24T06:43:01.540Z,179.50
2023-05-24T06:44:01.522Z,200.32
2023-05-24T06:45:01.571Z,216.91
2023-05-24T06:46:01.741Z,219.64
2023-05-24T06:47:01.537Z,230.71
2023-05-24T06:48:01.649Z,232.58
2023-05-24T06:49:01.595Z,243.14
2023-05-24T06:50:01.576Z,241.46
2023-05-24T06:51:01.737Z,250.00
2023-05-24T06:52:01.762Z,250.56
2023-05-24T06:53:01.470Z,249.72
2023-05-24T06:54:01.458Z,249.43
2023-05-24T06:55:01.479Z,247.89
2023-05-24T06:56:01.443Z,249.01
2023-05-24T06:57:01.490Z,245.48
2023-05-24T06:58:01.456Z,246.56
2023-05-24T06:59:01.471Z,250.00
2023-05-24T07:00:01.607Z,248.81
2023-05-24T07:01:01.463Z,250.00
2023-05-24T07:02:03.683Z,249.02
2023-05-24T07:03:01.450Z,249.45
2023-05-24T07:04:01.477Z,250.97
2023-05-24T07:05:01.439Z,252.81
2023-05-24T07:06:01.406Z,257.06
2023-05-24T07:07:01.417Z,255.83
2023-05-24T07:08:01.396Z,248.56
2023-05-24T07:09:01.375Z,226.80
2023-05-24T07:10:01.377Z,189.98
2023-05-24T07:11:01.382Z,182.88
2023-05-24T07:12:01.358Z,195.57
2023-05-24T07:13:01.347Z,207.69
2023-05-24T07:14:01.371Z,218.93
2023-05-24T07:15:01.336Z,230.11
2023-05-24T07:16:01.395Z,235.12
2023-05-24T07:17:01.401Z,234.32
2023-05-24T07:18:01.369Z,230.59
2023-05-24T07:19:03.976Z,228.54
2023-05-24T07:20:01.476Z,228.78
2023-05-24T07:21:01.447Z,228.89
2023-05-24T07:22:01.293Z,225.94
2023-05-24T07:23:01.283Z,223.24
2023-05-24T07:24:01.304Z,224.52
2023-05-24T07:25:01.328Z,231.51
2023-05-24T07:26:01.266Z,226.35
2023-05-24T07:27:01.275Z,229.52
2023-05-24T07:28:01.236Z,235.38
2023-05-24T07:29:01.250Z,238.85
2023-05-24T07:30:01.294Z,234.58
2023-05-24T07:31:01.223Z,228.12
2023-05-24T07:32:01.397Z,230.15
2023-05-24T07:33:01.665Z,227.18
2023-05-24T07:34:01.236Z,209.47
2023-05-24T07:35:01.197Z,199.60
2023-05-24T07:36:01.186Z,188.07
2023-05-24T07:37:01.208Z,178.47
2023-05-24T07:38:01.238Z,175.70
2023-05-24T07:39:01.240Z,179.05
2023-05-24T07:40:01.159Z,172.55
2023-05-24T07:41:01.157Z,170.37
2023-05-24T07:42:01.157Z,176.85
2023-05-24T07:43:01.600Z,187.56
2023-05-24T07:44:01.158Z,199.40
2023-05-24T07:45:01.131Z,202.82
2023-05-24T07:46:01.137Z,198.36
2023-05-24T07:47:01.106Z,194.98
2023-05-24T07:48:01.175Z,206.72
2023-05-24T07:49:01.120Z,209.39
2023-05-24T07:50:01.090Z,206.55
2023-05-24T07:51:01.090Z,213.51
2023-05-24T07:52:01.093Z,217.17
2023-05-24T07:53:01.160Z,221.73
2023-05-24T07:54:01.240Z,215.92
2023-05-24T07:55:01.072Z,216.39
2023-05-24T07:56:01.095Z,215.16
2023-05-24T07:57:01.049Z,214.13
2023-05-24T07:58:01.082Z,209.46
2023-05-24T07:59:01.041Z,213.09
2023-05-24T08:00:01.033Z,223.46
2023-05-24T08:01:01.042Z,225.02
2023-05-24T08:02:01.026Z,221.60
2023-05-24T08:03:01.133Z,212.88
2023-05-24T08:04:01.160Z,202.74
2023-05-24T08:05:00.996Z,202.62
2023-05-24T08:06:00.987Z,208.59
2023-05-24T08:07:01.003Z,205.61
2023-05-24T08:08:00.973Z,201.95
2023-05-24T08:09:00.966Z,206.65
2023-05-24T08:10:00.961Z,214.03
2023-05-24T08:11:00.967Z,218.55
2023-05-24T08:12:01.029Z,213.50
2023-05-24T08:13:01.073Z,218.01
2023-05-24T08:14:01.051Z,213.29
2023-05-24T08:15:01.105Z,214.99
2023-05-24T08:16:01.163Z,227.48
2023-05-24T08:17:01.214Z,222.96
2023-05-24T08:18:01.285Z,221.64
2023-05-24T08:19:01.287Z,222.88
2023-05-24T08:20:01.584Z,221.83
2023-05-24T08:21:01.419Z,223.64
2023-05-24T08:22:01.466Z,221.41
2023-05-24T08:23:01.515Z,221.40
2023-05-24T08:24:01.570Z,216.05
2023-05-24T08:25:01.662Z,209.96
2023-05-24T08:26:01.717Z,208.51
2023-05-24T08:27:01.754Z,222.05
2023-05-24T08:28:01.870Z,200.39
2023-05-24T08:29:01.872Z,138.79
2023-05-24T08:30:01.994Z,106.37
2023-05-24T08:31:01.996Z,74.93
2023-05-24T08:32:02.383Z,54.21
2023-05-24T08:33:02.110Z,33.52
2023-05-24T08:34:02.059Z,23.63
2023-05-24T08:35:17.503Z,25.00
2023-05-24T08:36:03.074Z,22.93
2023-05-24T08:37:02.000Z,13.42
2023-05-24T08:38:02.066Z,5.54
2023-05-24T08:39:01.976Z,0.00
2023-05-24T08:40:01.962Z,0.00
2023-05-24T08:41:02.029Z,2.86
2023-05-24T08:43:01.966Z,33.71
2023-05-24T08:44:01.948Z,52.45
2023-05-24T08:45:01.933Z,78.63
2023-05-24T08:46:02.838Z,96.74
2023-05-24T08:47:01.951Z,111.08
2023-05-24T08:48:01.989Z,115.89
2023-05-24T08:49:01.960Z,134.34
2023-05-24T08:50:01.903Z,155.65
2023-05-24T08:51:02.345Z,169.22
2023-05-24T08:52:02.316Z,178.01
2023-05-24T08:53:01.907Z,183.53
2023-05-24T08:54:01.934Z,188.93
2023-05-24T08:55:01.887Z,190.97
2023-05-24T08:56:02.369Z,195.23
2023-05-24T08:57:01.911Z,200.03
2023-05-24T08:58:01.904Z,199.81
2023-05-24T08:59:01.976Z,194.11
2023-05-24T09:00:01.924Z,179.96
2023-05-24T09:01:01.871Z,178.36
2023-05-24T09:02:01.888Z,168.95
2023-05-24T09:03:01.844Z,162.49
2023-05-24T09:04:01.853Z,152.58
2023-05-24T09:05:01.812Z,152.26
2023-05-24T09:06:01.907Z,151.93
2023-05-24T09:07:01.793Z,153.64
2023-05-24T09:08:01.814Z,157.78
2023-05-24T09:09:01.782Z,165.80
2023-05-24T09:10:01.789Z,161.40
2023-05-24T09:11:01.894Z,152.62
2023-05-24T09:12:01.777Z,158.98
2023-05-24T09:13:01.820Z,151.22
2023-05-24T09:14:01.806Z,152.15
2023-05-24T09:15:01.778Z,145.67
2023-05-24T09:16:01.787Z,142.09
2023-05-24T09:17:01.756Z,136.66
2023-05-24T09:18:01.782Z,142.85
2023-05-24T09:19:01.787Z,136.26
2023-05-24T09:20:01.778Z,136.37
2023-05-24T09:21:01.703Z,136.52
2023-05-24T09:22:01.699Z,139.26
2023-05-24T09:23:01.691Z,140.13
2023-05-24T09:24:01.685Z,130.14
2023-05-24T09:25:01.689Z,130.84
2023-05-24T09:26:01.662Z,119.76
2023-05-24T09:27:01.701Z,123.50
2023-05-24T09:28:01.794Z,123.75
2023-05-24T09:29:01.884Z,116.38
2023-05-24T09:30:01.895Z,121.73
2023-05-24T09:31:03.934Z,131.68
2023-05-24T09:32:02.002Z,134.36
2023-05-24T09:33:02.035Z,130.18
2023-05-24T09:34:01.949Z,125.19
2023-05-24T09:35:01.985Z,121.99
2023-05-24T09:36:01.965Z,122.34
2023-05-24T09:37:02.336Z,94.47
2023-05-24T09:38:01.971Z,102.28
2023-05-24T09:39:01.896Z,102.29
2023-05-24T09:40:01.986Z,119.17
2023-05-24T09:41:01.907Z,105.81
2023-05-24T09:42:01.910Z,103.97
2023-05-24T09:43:01.938Z,99.79
2023-05-24T09:44:01.863Z,92.43
2023-05-24T09:45:01.933Z,101.82
2023-05-24T09:46:01.859Z,86.31
2023-05-24T09:47:01.992Z,82.56
2023-05-24T09:48:01.915Z,73.95
2023-05-24T09:49:01.871Z,76.84
2023-05-24T09:50:01.848Z,76.54
2023-05-24T09:51:01.884Z,87.25
2023-05-24T09:52:02.476Z,100.96
2023-05-24T09:53:01.824Z,102.85
2023-05-24T09:54:01.823Z,104.53
2023-05-24T09:55:01.809Z,102.86
2023-05-24T09:56:02.077Z,108.41
2023-05-24T09:57:03.470Z,97.47
2023-05-24T09:58:01.795Z,95.69
2023-05-24T09:59:01.810Z,83.85
2023-05-24T10:00:01.913Z,81.09
2023-05-24T10:01:01.839Z,85.88
2023-05-24T10:02:01.851Z,90.18
2023-05-24T10:03:01.828Z,98.14
2023-05-24T10:04:01.869Z,103.14
2023-05-24T10:05:01.771Z,102.81
2023-05-24T10:06:01.730Z,92.36
2023-05-24T10:07:01.834Z,85.03
2023-05-24T10:08:01.725Z,86.25
2023-05-24T10:09:01.728Z,81.62
2023-05-24T10:10:01.735Z,91.54
2023-05-24T10:11:01.708Z,93.35
2023-05-24T10:12:01.859Z,94.30
2023-05-24T10:13:01.743Z,97.23
2023-05-24T10:14:01.721Z,90.75
2023-05-24T10:15:01.698Z,83.47
2023-05-24T10:16:01.690Z,72.75
2023-05-24T10:17:01.724Z,68.18
2023-05-24T10:18:01.896Z,50.88
2023-05-24T10:19:01.653Z,47.40
2023-05-24T10:20:01.701Z,54.10
2023-05-24T10:21:01.922Z,54.75
2023-05-24T10:22:01.650Z,66.90
2023-05-24T10:23:01.988Z,74.65
2023-05-24T10:24:01.618Z,56.52
2023-05-24T10:25:01.616Z,65.55
2023-05-24T10:26:01.612Z,67.89
2023-05-24T10:27:01.837Z,70.79
2023-05-24T10:28:01.647Z,80.46
2023-05-24T10:29:01.600Z,69.27
2023-05-24T10:30:01.692Z,54.08
2023-05-24T10:31:01.742Z,54.74
2023-05-24T10:32:01.852Z,66.97
2023-05-24T10:33:01.586Z,74.02
2023-05-24T10:34:07.587Z,77.10
2023-05-24T10:35:02.572Z,77.19
2023-05-24T10:36:01.537Z,77.58
2023-05-24T10:37:02.334Z,80.09
2023-05-24T10:38:01.548Z,90.16
2023-05-24T10:39:01.577Z,105.99
2023-05-24T10:40:01.505Z,109.07
2023-05-24T10:41:01.586Z,106.28
2023-05-24T10:42:01.488Z,98.73
2023-05-24T10:43:01.497Z,84.19
2023-05-24T10:44:09.913Z,58.56
2023-05-24T10:45:02.474Z,50.60
2023-05-24T10:46:01.512Z,51.09
2023-05-24T10:47:01.462Z,47.61
2023-05-24T10:48:01.511Z,53.47
2023-05-24T10:49:01.452Z,60.60
2023-05-24T10:50:01.458Z,72.56
2023-05-24T10:51:01.423Z,89.33
2023-05-24T10:52:01.499Z,99.71
2023-05-24T10:53:01.423Z,105.53
2023-05-24T10:54:01.501Z,111.68
2023-05-24T10:55:04.416Z,113.98
2023-05-24T10:56:01.424Z,113.49
2023-05-24T10:57:01.413Z,107.30
2023-05-24T10:58:01.405Z,106.97
2023-05-24T10:59:01.407Z,109.67
2023-05-24T11:00:01.398Z,113.80
2023-05-24T11:01:01.386Z,117.60
2023-05-24T11:02:01.448Z,118.28
2023-05-24T11:03:01.489Z,120.15
2023-05-24T11:04:01.376Z,117.38
2023-05-24T11:05:01.399Z,116.66
2023-05-24T11:06:01.433Z,117.40
2023-05-24T11:07:01.364Z,114.88
2023-05-24T11:08:01.349Z,114.42
2023-05-24T11:09:01.363Z,108.77
2023-05-24T11:10:01.388Z,104.64
2023-05-24T11:11:11.468Z,100.70
2023-05-24T11:12:02.323Z,100.17
2023-05-24T11:13:01.340Z,87.97
2023-05-24T11:14:01.385Z,94.43
2023-05-24T11:15:01.297Z,101.10
2023-05-24T11:16:01.403Z,104.41
2023-05-24T11:17:01.303Z,113.20
2023-05-24T11:18:01.379Z,113.94
2023-05-24T11:19:01.253Z,117.68
2023-05-24T11:20:01.325Z,117.09
2023-05-24T11:21:01.306Z,126.23
2023-05-24T11:41:51.817Z,25.00
2023-05-24T11:42:51.718Z,25.00
2023-05-24T11:43:51.702Z,25.00
2023-05-24T11:44:51.699Z,25.00
2023-05-24T11:45:51.720Z,25.00
2023-05-24T11:46:51.710Z,26.65
2023-05-24T11:47:51.710Z,26.86
2023-05-24T11:48:51.678Z,26.86
2023-05-24T11:49:51.662Z,25.00
2023-05-24T11:50:52.058Z,25.25
2023-05-24T11:53:10.961Z,25.00
2023-05-24T11:54:10.969Z,25.00
2023-05-24T11:55:11.045Z,25.00
2023-05-24T11:56:11.128Z,25.00
2023-05-24T11:57:11.254Z,25.00
2023-05-24T11:58:11.254Z,24.27
2023-05-24T11:59:11.318Z,27.00
2023-05-24T12:00:11.523Z,25.58
2023-05-24T12:01:11.458Z,25.69
2023-05-24T12:02:11.538Z,26.10
2023-05-24T12:03:11.612Z,26.76
2023-05-24T12:04:12.135Z,28.52
2023-05-24T12:05:11.655Z,26.55
2023-05-24T12:06:11.701Z,26.72
2023-05-24T12:07:11.762Z,28.95
2023-05-24T12:08:12.703Z,26.31
2023-05-24T12:09:11.896Z,27.66
2023-05-24T12:10:11.932Z,27.77
2023-05-24T12:11:11.994Z,28.13
2023-05-24T12:12:12.075Z,28.84
2023-05-24T12:13:12.135Z,28.11
2023-05-24T12:14:12.179Z,29.40
2023-05-24T12:15:12.252Z,30.70
2023-05-24T12:16:12.367Z,27.72
2023-05-24T12:17:12.367Z,25.08
2023-05-24T12:18:12.451Z,25.00
2023-05-24T12:19:23.869Z,25.89
2023-05-24T12:20:13.538Z,26.18
2023-05-24T12:21:12.441Z,26.31
2023-05-24T12:22:12.437Z,28.15
2023-05-24T12:23:12.434Z,34.33
2023-05-24T12:24:12.476Z,39.98
2023-05-24T12:25:12.418Z,40.21
2023-05-24T12:26:12.409Z,40.50
2023-05-24T12:27:12.405Z,38.23
2023-05-24T12:28:12.433Z,40.50
2023-05-24T12:29:12.497Z,38.11
2023-05-24T12:30:12.550Z,37.98
2023-05-24T12:31:12.665Z,40.77
2023-05-24T12:32:13.868Z,36.04
2023-05-24T12:33:12.760Z,37.01
2023-05-24T12:34:12.770Z,35.99
2023-05-24T12:35:12.820Z,34.56
2023-05-24T12:36:12.866Z,30.63
2023-05-24T12:37:13.780Z,33.91
2023-05-24T12:38:12.970Z,36.22
2023-05-24T12:39:13.020Z,33.49
2023-05-24T12:40:13.054Z,38.39
2023-05-24T12:41:14.146Z,37.79
2023-05-24T12:42:13.248Z,43.05
2023-05-24T12:43:13.186Z,42.55
2023-05-24T12:44:13.229Z,46.38
2023-05-24T12:45:13.338Z,47.04
2023-05-24T12:46:13.339Z,44.00
2023-05-24T12:47:13.467Z,41.90
2023-05-24T12:48:13.431Z,40.88
2023-05-24T12:49:13.427Z,41.34
2023-05-24T12:50:13.445Z,48.49
2023-05-24T12:51:13.471Z,49.50
2023-05-24T12:52:13.520Z,41.35
2023-05-24T12:53:13.552Z,35.20
2023-05-24T12:54:13.556Z,38.60
2023-05-24T12:55:13.598Z,42.75
2023-05-24T12:56:13.623Z,42.92
2023-05-24T12:57:13.660Z,44.22
2023-05-24T12:58:13.713Z,44.84
2023-05-24T12:59:13.736Z,43.40
2023-05-24T13:00:13.786Z,44.79
2023-05-24T13:01:13.920Z,41.99
2023-05-24T13:02:13.873Z,35.70
2023-05-24T13:03:13.919Z,35.89
2023-05-24T13:04:13.926Z,32.72
2023-05-24T13:05:13.995Z,36.27
2023-05-24T13:06:13.969Z,37.48
2023-05-24T13:07:13.995Z,41.09
2023-05-24T13:08:14.010Z,34.88
2023-05-24T13:09:14.046Z,33.70
2023-05-24T13:10:14.070Z,28.22
2023-05-24T13:11:14.057Z,28.50
2023-05-24T13:12:14.077Z,27.95
2023-05-24T13:13:14.062Z,35.46
2023-05-24T13:14:14.070Z,39.37
2023-05-24T13:15:14.094Z,40.75
2023-05-24T13:16:14.188Z,35.38
2023-05-24T13:17:14.188Z,36.65
2023-05-24T13:18:14.171Z,37.70
2023-05-24T13:19:14.124Z,37.30
2023-05-24T13:20:14.268Z,38.54
2023-05-24T13:21:14.125Z,40.59
2023-05-24T13:22:14.118Z,43.06
2023-05-24T13:23:14.144Z,36.51
2023-05-24T13:24:14.121Z,37.35
2023-05-24T13:25:14.129Z,41.29
2023-05-24T13:26:14.171Z,41.54
2023-05-24T13:27:14.175Z,35.42